De Leon Springs, FL (32130)

7:50 AM EDT on September 01, 2014 (GMT -0400)
Glenwood | Change Station
CLOSE
Current Station
Personal Weather Station
Location: DeLand, FL
Elevation: 129 ft
Nearby Weather Stations

Elev 129 ft 29.09 °N, 81.34 °W | Updated 22 seconds ago

Clear
Clear
73.7 °F
Feels Like 73.7 °F
N
0.0
Wind Variable Wind from ESE
Gusts 0.0 mph

Today
High -- | Low -- °F
--% Chance of Precip.
Yesterday
High -- | Low -- °F
Precip. -- in
7:03 AM 7:47 PM
Waxing Crescent, 40% visible
Pressure 30.12 in
Visibility 8.0 miles
Clouds Clear
Dew Point 73 °F
Humidity 98%
Rainfall 0.00 in
Snow Depth Not available.
UV 0 out of 12
Pollen 8.10 out of 12
Air Quality Not available.
Flu Activity Not available.
METAR KDED 011135Z AUTO 34003KT 8SM CLR 23/23 A3012 RMK AO1

More Conditions Fewer Conditions

Pressure 30.12 in
Visibility 8.0 miles
Clouds Clear
Dew Point 73 °F
Humidity 98%
Rainfall 0.00 in
Snow Depth Not available.
UV 0 out of 12
Pollen 8.10 out of 12
Air Quality Not available.
Flu Activity Not available.
METAR KDED 011135Z AUTO 34003KT 8SM CLR 23/23 A3012 RMK AO1

More Conditions Fewer Conditions

10-Day Weather Forecast

Almanac

Astronomy

Sep. 01, 2014 Rise Set
Actual Time 7:03 AM EDT 7:47 PM EDT
Civil Twilight 6:38 AM EDT 8:11 PM EDT
Nautical Twilight 6:10 AM EDT 8:39 PM EDT
Astronomical Twilight 5:41 AM EDT 9:08 PM EDT
Moon 1:16 PM EDT No Moon Set
Length of Visible Light 13h 32m
Length of Day
12h 44m
Tomorrow will be 1m 41s shorter.
Waxing Crescent, 40% of the Moon is Illuminated
Today
Waxing Crescent
Sep 2
First Quarter
Sep 8
Full
Sep 15
Last Quarter
Sep 24
New

Today's Extremes

State Highs State Lows

Community

WunderPhotos

Upload Photos

1,749,192 photos uploaded!

Nearby

Snow Depth

Station Depth Elevation
No new snow has been reported.

Earthquake Activity

City Distance Mag. Time & Date
No recent earthquake activity has been reported nearby.
Minimum magnitude displayed is 2.5.

Coastal Water Temperatures

Place Temperature
Trident Pier, FL 86.0 °F
Mayport (Bar Pilots Dock), FL 86.0 °F
Fernandina Beach, FL 86.0 °F
McKay Bay Entrance, FL 89.1 °F

Nearby Weather Stations